Airport View

Enter AWOS ICAO identifier for current METAR.

ex. KFNL

KABY 100153Z AUTO 00000KT 10SM CLR 29/24 A2992 RMK AO2 SLP129 T02890239

10 Jul 2020 02:02

Phone: 229-434-7494

Other Area AWOS: KCXU - KMGR - KACJ - KCKF

TAF KABY 092320Z 1000/1024 29007KT P6SM SKC FM101800 30010KT P6SM VCTS SCT040CB